Pede Vento — CRLZ9 — position and weather

sailwx.info

Track history (hours):
 
Tides and Currents Weather Stations Pressure Air Temp Water Temp Dewpoint Dewpoint Depression Visibility Wind Speed Wind Dir Waves Ship Positions

Pede Vento

Last reported at 2017-Nov-05 12:56 UTC. Time now 2017-Nov-21 17:38 UTC.
Position N 38°42' W 009°08'.
Warning: this ship's position is 16 days out of date.

Length 12 m.

Type: Sailing vessel. MMSI: 263819560.

Date/timePositionNaut miles runAvg speedWind from/ knotsBaromVisibWave heightAir tempDewpointWater temp
2017-Nov-05 12:56N 38°42' W 009°08'  
2017-Oct-29 17:52N 38°42' W 009°11'3 6.7
2017-Oct-29 17:29N 38°41' W 009°14'3 6.2
2017-Oct-29 17:00N 38°41' W 009°18'4 6.4
2017-Oct-29 16:22N 38°41' W 009°23'1 2.8
2017-Oct-29 15:54N 38°42' W 009°25'0 0.0
2017-Oct-28 17:59N 38°41' W 009°25'0 0.3
2017-Oct-28 16:33N 38°42' W 009°25'0 0.0
2017-Oct-28 12:06N 38°42' W 009°25'0 0.0
2017-Oct-28 11:45N 38°42' W 009°25'5 6.3
2017-Oct-28 10:57N 38°40' W 009°19'4 7.9
2017-Oct-28 10:28N 38°41' W 009°14'  
Track history (hours):
 
Tides and Currents Weather Stations Pressure Air Temp Water Temp Dewpoint Dewpoint Depression Visibility Wind Speed Wind Dir Waves Ship Positions

Pede Vento

Last reported at 2017-Nov-05 12:56 UTC. Time now 2017-Nov-21 17:38 UTC.
Position N 38°42' W 009°08'.
Warning: this ship's position is 16 days out of date.

Length 12 m.

Type: Sailing vessel. MMSI: 263819560.

Date/timePositionNaut miles runAvg speedWind from/ knotsBaromVisibWave heightAir tempDewpointWater temp
2017-Nov-05 12:56N 38°42' W 009°08'  
2017-Oct-29 17:52N 38°42' W 009°11'3 6.7
2017-Oct-29 17:29N 38°41' W 009°14'3 6.2
2017-Oct-29 17:00N 38°41' W 009°18'4 6.4
2017-Oct-29 16:22N 38°41' W 009°23'1 2.8
2017-Oct-29 15:54N 38°42' W 009°25'0 0.0
2017-Oct-28 17:59N 38°41' W 009°25'0 0.3
2017-Oct-28 16:33N 38°42' W 009°25'0 0.0
2017-Oct-28 12:06N 38°42' W 009°25'0 0.0
2017-Oct-28 11:45N 38°42' W 009°25'5 6.3
2017-Oct-28 10:57N 38°40' W 009°19'4 7.9
2017-Oct-28 10:28N 38°41' W 009°14'  

Dump ship's entire track history